sensor_id;sensor_type;location;lat;lon;timestamp;P1;durP1;ratioP1;P2;durP2;ratioP2
11568;SDS011;5840;46.894;15.542;2023-07-20T00:00:57;7.43;;;6.73;;
11568;SDS011;5840;46.894;15.542;2023-07-20T00:03:24;7.00;;;6.30;;
11568;SDS011;5840;46.894;15.542;2023-07-20T00:05:51;6.33;;;5.60;;
11568;SDS011;5840;46.894;15.542;2023-07-20T00:08:19;6.77;;;6.07;;
11568;SDS011;5840;46.894;15.542;2023-07-20T00:10:46;6.90;;;6.20;;
11568;SDS011;5840;46.894;15.542;2023-07-20T00:13:14;8.33;;;5.90;;
11568;SDS011;5840;46.894;15.542;2023-07-20T00:15:43;6.80;;;6.20;;
11568;SDS011;5840;46.894;15.542;2023-07-20T00:18:10;7.00;;;6.27;;
11568;SDS011;5840;46.894;15.542;2023-07-20T00:20:37;6.83;;;6.13;;
11568;SDS011;5840;46.894;15.542;2023-07-20T00:23:04;7.00;;;6.20;;
11568;SDS011;5840;46.894;15.542;2023-07-20T00:25:32;6.90;;;5.63;;
11568;SDS011;5840;46.894;15.542;2023-07-20T00:28:00;6.77;;;6.10;;
11568;SDS011;5840;46.894;15.542;2023-07-20T00:30:27;7.13;;;6.40;;
11568;SDS011;5840;46.894;15.542;2023-07-20T00:32:54;6.13;;;5.63;;
11568;SDS011;5840;46.894;15.542;2023-07-20T00:35:21;6.93;;;6.03;;
11568;SDS011;5840;46.894;15.542;2023-07-20T00:37:48;6.67;;;6.07;;
11568;SDS011;5840;46.894;15.542;2023-07-20T00:40:15;7.33;;;6.20;;
11568;SDS011;5840;46.894;15.542;2023-07-20T00:42:44;6.97;;;5.63;;
11568;SDS011;5840;46.894;15.542;2023-07-20T00:45:11;6.50;;;5.90;;
11568;SDS011;5840;46.894;15.542;2023-07-20T00:47:38;5.93;;;5.40;;
11568;SDS011;5840;46.894;15.542;2023-07-20T00:50:05;6.50;;;5.90;;
11568;SDS011;5840;46.894;15.542;2023-07-20T00:52:33;7.70;;;6.10;;
11568;SDS011;5840;46.894;15.542;2023-07-20T00:55:00;7.50;;;5.67;;
11568;SDS011;5840;46.894;15.542;2023-07-20T00:57:27;6.80;;;6.20;;
11568;SDS011;5840;46.894;15.542;2023-07-20T00:59:56;6.13;;;5.63;;
11568;SDS011;5840;46.894;15.542;2023-07-20T01:02:22;7.37;;;5.57;;
11568;SDS011;5840;46.894;15.542;2023-07-20T01:04:49;7.50;;;6.07;;
11568;SDS011;5840;46.894;15.542;2023-07-20T01:07:19;7.07;;;5.47;;
11568;SDS011;5840;46.894;15.542;2023-07-20T01:09:52;5.83;;;5.23;;
11568;SDS011;5840;46.894;15.542;2023-07-20T01:12:27;6.27;;;5.63;;
11568;SDS011;5840;46.894;15.542;2023-07-20T01:15:01;5.67;;;5.17;;
11568;SDS011;5840;46.894;15.542;2023-07-20T01:17:28;6.47;;;5.87;;
11568;SDS011;5840;46.894;15.542;2023-07-20T01:19:55;6.00;;;5.23;;
11568;SDS011;5840;46.894;15.542;2023-07-20T01:22:30;7.93;;;5.93;;
11568;SDS011;5840;46.894;15.542;2023-07-20T01:25:17;5.70;;;5.20;;
11568;SDS011;5840;46.894;15.542;2023-07-20T01:33:52;5.77;;;5.33;;
11568;SDS011;5840;46.894;15.542;2023-07-20T01:36:22;5.47;;;4.87;;
11568;SDS011;5840;46.894;15.542;2023-07-20T01:38:50;5.83;;;5.33;;
11568;SDS011;5840;46.894;15.542;2023-07-20T01:41:18;5.80;;;5.27;;
11568;SDS011;5840;46.894;15.542;2023-07-20T01:43:45;5.70;;;5.30;;
11568;SDS011;5840;46.894;15.542;2023-07-20T01:46:12;6.77;;;5.77;;
11568;SDS011;5840;46.894;15.542;2023-07-20T01:48:41;5.73;;;5.23;;
11568;SDS011;5840;46.894;15.542;2023-07-20T01:51:08;6.13;;;5.43;;
11568;SDS011;5840;46.894;15.542;2023-07-20T01:53:35;5.77;;;5.13;;
11568;SDS011;5840;46.894;15.542;2023-07-20T01:56:02;7.53;;;5.17;;
11568;SDS011;5840;46.894;15.542;2023-07-20T01:58:29;8.57;;;5.53;;
11568;SDS011;5840;46.894;15.542;2023-07-20T02:00:56;6.67;;;5.23;;
11568;SDS011;5840;46.894;15.542;2023-07-20T02:03:23;5.33;;;4.87;;
11568;SDS011;5840;46.894;15.542;2023-07-20T02:05:53;6.00;;;5.50;;
11568;SDS011;5840;46.894;15.542;2023-07-20T02:08:20;6.40;;;5.70;;
11568;SDS011;5840;46.894;15.542;2023-07-20T02:10:47;5.60;;;5.20;;
11568;SDS011;5840;46.894;15.542;2023-07-20T02:13:14;6.10;;;5.40;;
11568;SDS011;5840;46.894;15.542;2023-07-20T02:15:41;5.70;;;5.17;;
11568;SDS011;5840;46.894;15.542;2023-07-20T02:18:08;5.60;;;5.20;;
11568;SDS011;5840;46.894;15.542;2023-07-20T02:20:35;8.13;;;5.47;;
11568;SDS011;5840;46.894;15.542;2023-07-20T02:23:03;6.33;;;4.73;;
11568;SDS011;5840;46.894;15.542;2023-07-20T02:25:30;5.97;;;5.37;;
11568;SDS011;5840;46.894;15.542;2023-07-20T02:27:57;5.63;;;5.17;;
11568;SDS011;5840;46.894;15.542;2023-07-20T02:30:24;6.03;;;5.10;;
11568;SDS011;5840;46.894;15.542;2023-07-20T02:32:52;6.90;;;5.50;;
11568;SDS011;5840;46.894;15.542;2023-07-20T02:35:19;5.03;;;4.70;;
11568;SDS011;5840;46.894;15.542;2023-07-20T02:37:46;5.47;;;4.97;;
11568;SDS011;5840;46.894;15.542;2023-07-20T02:40:14;6.27;;;5.57;;
11568;SDS011;5840;46.894;15.542;2023-07-20T02:42:41;5.83;;;5.40;;
11568;SDS011;5840;46.894;15.542;2023-07-20T02:45:08;5.70;;;5.30;;
11568;SDS011;5840;46.894;15.542;2023-07-20T02:47:35;5.43;;;4.93;;
11568;SDS011;5840;46.894;15.542;2023-07-20T02:50:03;5.43;;;4.93;;
11568;SDS011;5840;46.894;15.542;2023-07-20T02:52:32;5.43;;;5.00;;
11568;SDS011;5840;46.894;15.542;2023-07-20T02:54:59;6.03;;;5.37;;
11568;SDS011;5840;46.894;15.542;2023-07-20T02:57:27;5.57;;;5.13;;
11568;SDS011;5840;46.894;15.542;2023-07-20T02:59:54;5.60;;;5.10;;
11568;SDS011;5840;46.894;15.542;2023-07-20T03:02:21;5.40;;;4.90;;
11568;SDS011;5840;46.894;15.542;2023-07-20T03:04:48;6.00;;;5.57;;
11568;SDS011;5840;46.894;15.542;2023-07-20T03:07:14;5.43;;;4.93;;
11568;SDS011;5840;46.894;15.542;2023-07-20T03:09:42;5.90;;;5.30;;
11568;SDS011;5840;46.894;15.542;2023-07-20T03:12:09;5.93;;;5.33;;
11568;SDS011;5840;46.894;15.542;2023-07-20T03:14:38;6.20;;;5.30;;
11568;SDS011;5840;46.894;15.542;2023-07-20T03:17:05;5.33;;;4.87;;
11568;SDS011;5840;46.894;15.542;2023-07-20T03:19:32;5.63;;;5.00;;
11568;SDS011;5840;46.894;15.542;2023-07-20T03:21:59;5.90;;;5.30;;
11568;SDS011;5840;46.894;15.542;2023-07-20T03:24:26;5.50;;;5.03;;
11568;SDS011;5840;46.894;15.542;2023-07-20T03:26:52;5.43;;;5.03;;
11568;SDS011;5840;46.894;15.542;2023-07-20T03:29:19;5.70;;;5.30;;
11568;SDS011;5840;46.894;15.542;2023-07-20T03:31:48;4.80;;;4.50;;
11568;SDS011;5840;46.894;15.542;2023-07-20T03:34:15;5.47;;;4.97;;
11568;SDS011;5840;46.894;15.542;2023-07-20T03:36:42;5.40;;;4.90;;
11568;SDS011;5840;46.894;15.542;2023-07-20T03:39:09;5.83;;;5.33;;
11568;SDS011;5840;46.894;15.542;2023-07-20T03:41:36;6.50;;;5.80;;
11568;SDS011;5840;46.894;15.542;2023-07-20T03:44:03;8.87;;;5.60;;
11568;SDS011;5840;46.894;15.542;2023-07-20T03:46:30;7.07;;;5.50;;
11568;SDS011;5840;46.894;15.542;2023-07-20T03:49:00;6.37;;;5.50;;
11568;SDS011;5840;46.894;15.542;2023-07-20T03:51:27;6.03;;;5.43;;
11568;SDS011;5840;46.894;15.542;2023-07-20T03:53:54;6.17;;;5.57;;
11568;SDS011;5840;46.894;15.542;2023-07-20T03:56:21;6.17;;;5.57;;
11568;SDS011;5840;46.894;15.542;2023-07-20T03:58:49;5.37;;;4.97;;
11568;SDS011;5840;46.894;15.542;2023-07-20T04:01:16;6.10;;;5.30;;
11568;SDS011;5840;46.894;15.542;2023-07-20T04:03:43;6.20;;;5.30;;
11568;SDS011;5840;46.894;15.542;2023-07-20T04:06:11;6.07;;;4.90;;
11568;SDS011;5840;46.894;15.542;2023-07-20T04:08:39;6.37;;;5.83;;
11568;SDS011;5840;46.894;15.542;2023-07-20T04:11:06;7.93;;;6.10;;
11568;SDS011;5840;46.894;15.542;2023-07-20T04:13:33;6.13;;;5.60;;
11568;SDS011;5840;46.894;15.542;2023-07-20T04:16:00;7.83;;;5.93;;
11568;SDS011;5840;46.894;15.542;2023-07-20T04:18:27;6.67;;;5.43;;
11568;SDS011;5840;46.894;15.542;2023-07-20T04:20:54;7.40;;;5.90;;
11568;SDS011;5840;46.894;15.542;2023-07-20T04:23:22;6.20;;;5.60;;
11568;SDS011;5840;46.894;15.542;2023-07-20T04:25:49;6.50;;;5.73;;
11568;SDS011;5840;46.894;15.542;2023-07-20T04:28:17;6.23;;;5.73;;
11568;SDS011;5840;46.894;15.542;2023-07-20T04:30:43;6.63;;;6.00;;
11568;SDS011;5840;46.894;15.542;2023-07-20T04:33:10;6.20;;;5.70;;
11568;SDS011;5840;46.894;15.542;2023-07-20T04:35:50;8.57;;;6.33;;
11568;SDS011;5840;46.894;15.542;2023-07-20T04:38:17;6.60;;;6.00;;
11568;SDS011;5840;46.894;15.542;2023-07-20T04:40:46;5.73;;;5.23;;
11568;SDS011;5840;46.894;15.542;2023-07-20T04:43:14;6.50;;;5.90;;
11568;SDS011;5840;46.894;15.542;2023-07-20T04:45:42;5.40;;;5.00;;
11568;SDS011;5840;46.894;15.542;2023-07-20T04:48:09;6.13;;;5.60;;
11568;SDS011;5840;46.894;15.542;2023-07-20T04:50:40;5.83;;;5.37;;
11568;SDS011;5840;46.894;15.542;2023-07-20T04:53:08;5.27;;;4.90;;
11568;SDS011;5840;46.894;15.542;2023-07-20T04:55:35;5.83;;;5.33;;
11568;SDS011;5840;46.894;15.542;2023-07-20T04:58:03;5.90;;;5.30;;
11568;SDS011;5840;46.894;15.542;2023-07-20T05:00:31;5.60;;;5.20;;
11568;SDS011;5840;46.894;15.542;2023-07-20T05:02:58;11.87;;;5.73;;
11568;SDS011;5840;46.894;15.542;2023-07-20T05:05:25;7.07;;;5.00;;
11568;SDS011;5840;46.894;15.542;2023-07-20T05:07:52;5.90;;;5.40;;
11568;SDS011;5840;46.894;15.542;2023-07-20T05:10:19;6.00;;;5.23;;
11568;SDS011;5840;46.894;15.542;2023-07-20T05:12:46;5.20;;;4.80;;
11568;SDS011;5840;46.894;15.542;2023-07-20T05:15:14;5.63;;;5.23;;
11568;SDS011;5840;46.894;15.542;2023-07-20T05:17:41;5.80;;;5.30;;
11568;SDS011;5840;46.894;15.542;2023-07-20T05:20:08;7.87;;;5.37;;
11568;SDS011;5840;46.894;15.542;2023-07-20T05:22:37;5.77;;;5.23;;
11568;SDS011;5840;46.894;15.542;2023-07-20T05:25:06;5.60;;;5.10;;
11568;SDS011;5840;46.894;15.542;2023-07-20T05:27:34;5.80;;;5.03;;
11568;SDS011;5840;46.894;15.542;2023-07-20T05:30:02;6.60;;;6.07;;
11568;SDS011;5840;46.894;15.542;2023-07-20T05:32:32;5.90;;;5.37;;
11568;SDS011;5840;46.894;15.542;2023-07-20T05:34:59;5.87;;;5.37;;
11568;SDS011;5840;46.894;15.542;2023-07-20T05:37:26;6.23;;;5.03;;
11568;SDS011;5840;46.894;15.542;2023-07-20T05:39:53;5.47;;;5.07;;
11568;SDS011;5840;46.894;15.542;2023-07-20T05:42:19;6.00;;;5.40;;
11568;SDS011;5840;46.894;15.542;2023-07-20T05:44:46;6.17;;;4.90;;
11568;SDS011;5840;46.894;15.542;2023-07-20T05:47:14;5.50;;;5.10;;
11568;SDS011;5840;46.894;15.542;2023-07-20T05:49:43;5.27;;;4.77;;
11568;SDS011;5840;46.894;15.542;2023-07-20T05:52:10;5.73;;;4.83;;
11568;SDS011;5840;46.894;15.542;2023-07-20T05:54:36;5.33;;;4.57;;
11568;SDS011;5840;46.894;15.542;2023-07-20T05:57:04;6.73;;;5.23;;
11568;SDS011;5840;46.894;15.542;2023-07-20T05:59:31;6.13;;;5.53;;
11568;SDS011;5840;46.894;15.542;2023-07-20T06:01:58;7.03;;;4.97;;
11568;SDS011;5840;46.894;15.542;2023-07-20T06:04:25;5.37;;;4.87;;
11568;SDS011;5840;46.894;15.542;2023-07-20T06:06:53;5.60;;;5.20;;
11568;SDS011;5840;46.894;15.542;2023-07-20T06:09:20;6.80;;;5.27;;
11568;SDS011;5840;46.894;15.542;2023-07-20T06:11:47;5.37;;;4.87;;
11568;SDS011;5840;46.894;15.542;2023-07-20T06:14:14;5.80;;;5.30;;
11568;SDS011;5840;46.894;15.542;2023-07-20T06:16:41;6.03;;;5.30;;
11568;SDS011;5840;46.894;15.542;2023-07-20T06:19:08;5.50;;;5.10;;
11568;SDS011;5840;46.894;15.542;2023-07-20T06:21:36;5.70;;;5.00;;
11568;SDS011;5840;46.894;15.542;2023-07-20T06:24:04;5.23;;;4.83;;
11568;SDS011;5840;46.894;15.542;2023-07-20T06:26:32;6.13;;;5.53;;
11568;SDS011;5840;46.894;15.542;2023-07-20T06:29:03;7.23;;;6.00;;
11568;SDS011;5840;46.894;15.542;2023-07-20T06:31:31;6.87;;;6.17;;
11568;SDS011;5840;46.894;15.542;2023-07-20T06:33:58;8.63;;;6.03;;
11568;SDS011;5840;46.894;15.542;2023-07-20T06:36:25;6.40;;;5.70;;
11568;SDS011;5840;46.894;15.542;2023-07-20T06:38:52;5.83;;;5.23;;
11568;SDS011;5840;46.894;15.542;2023-07-20T06:41:20;7.33;;;4.80;;
11568;SDS011;5840;46.894;15.542;2023-07-20T06:43:47;5.27;;;4.80;;
11568;SDS011;5840;46.894;15.542;2023-07-20T06:46:14;6.47;;;5.60;;
11568;SDS011;5840;46.894;15.542;2023-07-20T06:48:41;6.67;;;5.93;;
11568;SDS011;5840;46.894;15.542;2023-07-20T06:51:08;7.00;;;6.23;;
11568;SDS011;5840;46.894;15.542;2023-07-20T06:53:35;7.47;;;5.67;;
11568;SDS011;5840;46.894;15.542;2023-07-20T06:56:02;5.97;;;5.43;;
11568;SDS011;5840;46.894;15.542;2023-07-20T06:58:30;5.47;;;4.97;;
11568;SDS011;5840;46.894;15.542;2023-07-20T07:00:58;6.00;;;5.20;;
11568;SDS011;5840;46.894;15.542;2023-07-20T07:03:25;5.53;;;5.03;;
11568;SDS011;5840;46.894;15.542;2023-07-20T07:05:54;5.30;;;4.87;;
11568;SDS011;5840;46.894;15.542;2023-07-20T07:08:22;5.43;;;5.03;;
11568;SDS011;5840;46.894;15.542;2023-07-20T07:10:48;5.50;;;4.73;;
11568;SDS011;5840;46.894;15.542;2023-07-20T07:13:16;5.70;;;5.13;;
11568;SDS011;5840;46.894;15.542;2023-07-20T07:15:44;5.50;;;5.10;;
11568;SDS011;5840;46.894;15.542;2023-07-20T07:18:11;5.90;;;5.27;;
11568;SDS011;5840;46.894;15.542;2023-07-20T07:20:38;5.50;;;5.10;;
11568;SDS011;5840;46.894;15.542;2023-07-20T07:23:05;5.50;;;5.10;;
11568;SDS011;5840;46.894;15.542;2023-07-20T07:25:32;6.30;;;4.73;;
11568;SDS011;5840;46.894;15.542;2023-07-20T07:27:59;5.47;;;4.67;;
11568;SDS011;5840;46.894;15.542;2023-07-20T07:30:26;5.07;;;4.67;;
11568;SDS011;5840;46.894;15.542;2023-07-20T07:32:54;5.40;;;4.90;;
11568;SDS011;5840;46.894;15.542;2023-07-20T07:35:21;5.73;;;5.23;;
11568;SDS011;5840;46.894;15.542;2023-07-20T07:37:48;5.67;;;5.17;;
11568;SDS011;5840;46.894;15.542;2023-07-20T07:40:15;5.53;;;4.97;;
11568;SDS011;5840;46.894;15.542;2023-07-20T07:42:42;5.63;;;5.03;;
11568;SDS011;5840;46.894;15.542;2023-07-20T07:45:09;5.27;;;4.87;;
11568;SDS011;5840;46.894;15.542;2023-07-20T07:47:36;6.23;;;5.73;;
11568;SDS011;5840;46.894;15.542;2023-07-20T07:50:05;6.10;;;5.60;;
11568;SDS011;5840;46.894;15.542;2023-07-20T07:52:33;6.00;;;5.60;;
11568;SDS011;5840;46.894;15.542;2023-07-20T07:55:00;6.23;;;5.63;;
11568;SDS011;5840;46.894;15.542;2023-07-20T07:57:27;6.10;;;5.50;;
11568;SDS011;5840;46.894;15.542;2023-07-20T07:59:53;6.47;;;5.87;;
11568;SDS011;5840;46.894;15.542;2023-07-20T08:02:20;5.93;;;5.33;;
11568;SDS011;5840;46.894;15.542;2023-07-20T08:04:48;6.30;;;5.77;;
11568;SDS011;5840;46.894;15.542;2023-07-20T08:07:18;5.87;;;5.30;;
11568;SDS011;5840;46.894;15.542;2023-07-20T08:09:45;5.73;;;5.30;;
11568;SDS011;5840;46.894;15.542;2023-07-20T08:12:12;5.83;;;5.23;;
11568;SDS011;5840;46.894;15.542;2023-07-20T08:14:39;5.87;;;5.40;;
11568;SDS011;5840;46.894;15.542;2023-07-20T08:17:06;6.07;;;5.57;;
11568;SDS011;5840;46.894;15.542;2023-07-20T08:19:33;6.23;;;5.70;;
11568;SDS011;5840;46.894;15.542;2023-07-20T08:22:00;6.30;;;5.70;;
11568;SDS011;5840;46.894;15.542;2023-07-20T08:24:28;5.97;;;5.50;;
11568;SDS011;5840;46.894;15.542;2023-07-20T08:26:55;5.53;;;5.03;;
11568;SDS011;5840;46.894;15.542;2023-07-20T08:29:22;5.27;;;4.77;;
11568;SDS011;5840;46.894;15.542;2023-07-20T08:31:50;6.20;;;5.40;;
11568;SDS011;5840;46.894;15.542;2023-07-20T08:34:17;6.20;;;5.53;;
11568;SDS011;5840;46.894;15.542;2023-07-20T08:36:44;5.90;;;5.30;;
11568;SDS011;5840;46.894;15.542;2023-07-20T08:39:11;6.10;;;5.57;;
11568;SDS011;5840;46.894;15.542;2023-07-20T08:41:39;6.13;;;5.63;;
11568;SDS011;5840;46.894;15.542;2023-07-20T08:44:08;6.40;;;4.93;;
11568;SDS011;5840;46.894;15.542;2023-07-20T08:46:36;5.60;;;5.17;;
11568;SDS011;5840;46.894;15.542;2023-07-20T08:49:05;5.90;;;5.40;;
11568;SDS011;5840;46.894;15.542;2023-07-20T08:51:33;6.27;;;5.53;;
11568;SDS011;5840;46.894;15.542;2023-07-20T08:54:01;6.00;;;5.30;;
11568;SDS011;5840;46.894;15.542;2023-07-20T08:56:29;5.90;;;5.40;;
11568;SDS011;5840;46.894;15.542;2023-07-20T08:58:58;5.60;;;5.10;;
11568;SDS011;5840;46.894;15.542;2023-07-20T09:01:27;6.17;;;5.60;;
11568;SDS011;5840;46.894;15.542;2023-07-20T09:03:55;5.90;;;5.13;;
11568;SDS011;5840;46.894;15.542;2023-07-20T09:06:23;6.87;;;6.17;;
11568;SDS011;5840;46.894;15.542;2023-07-20T09:08:50;5.07;;;4.67;;
11568;SDS011;5840;46.894;15.542;2023-07-20T09:11:17;6.10;;;5.60;;
11568;SDS011;5840;46.894;15.542;2023-07-20T09:13:44;6.57;;;5.97;;
11568;SDS011;5840;46.894;15.542;2023-07-20T09:16:14;5.90;;;5.40;;
11568;SDS011;5840;46.894;15.542;2023-07-20T09:18:42;5.00;;;4.60;;
11568;SDS011;5840;46.894;15.542;2023-07-20T09:21:09;5.53;;;5.03;;
11568;SDS011;5840;46.894;15.542;2023-07-20T09:23:36;5.40;;;4.73;;
11568;SDS011;5840;46.894;15.542;2023-07-20T09:26:09;4.90;;;4.50;;
11568;SDS011;5840;46.894;15.542;2023-07-20T09:28:41;5.30;;;4.80;;
11568;SDS011;5840;46.894;15.542;2023-07-20T09:31:16;6.50;;;4.67;;
11568;SDS011;5840;46.894;15.542;2023-07-20T09:33:43;5.07;;;4.57;;
11568;SDS011;5840;46.894;15.542;2023-07-20T09:36:11;4.87;;;4.47;;
11568;SDS011;5840;46.894;15.542;2023-07-20T09:38:38;5.60;;;5.10;;
11568;SDS011;5840;46.894;15.542;2023-07-20T09:41:06;5.60;;;5.10;;
11568;SDS011;5840;46.894;15.542;2023-07-20T09:43:33;4.80;;;4.40;;
11568;SDS011;5840;46.894;15.542;2023-07-20T09:46:00;5.93;;;4.80;;
11568;SDS011;5840;46.894;15.542;2023-07-20T09:48:29;4.70;;;4.30;;
11568;SDS011;5840;46.894;15.542;2023-07-20T09:50:56;5.07;;;4.67;;
11568;SDS011;5840;46.894;15.542;2023-07-20T09:53:24;5.67;;;5.13;;
11568;SDS011;5840;46.894;15.542;2023-07-20T09:55:52;4.80;;;4.50;;
11568;SDS011;5840;46.894;15.542;2023-07-20T09:58:20;4.77;;;4.37;;
11568;SDS011;5840;46.894;15.542;2023-07-20T10:00:48;5.07;;;4.67;;
11568;SDS011;5840;46.894;15.542;2023-07-20T10:03:18;5.40;;;4.90;;
11568;SDS011;5840;46.894;15.542;2023-07-20T10:05:48;4.87;;;4.47;;
11568;SDS011;5840;46.894;15.542;2023-07-20T10:08:20;5.97;;;4.80;;
11568;SDS011;5840;46.894;15.542;2023-07-20T10:10:50;4.70;;;4.40;;
11568;SDS011;5840;46.894;15.542;2023-07-20T10:13:17;5.17;;;4.77;;
11568;SDS011;5840;46.894;15.542;2023-07-20T10:15:50;4.53;;;4.13;;
11568;SDS011;5840;46.894;15.542;2023-07-20T10:18:22;4.73;;;4.33;;
11568;SDS011;5840;46.894;15.542;2023-07-20T10:20:56;4.90;;;4.50;;
11568;SDS011;5840;46.894;15.542;2023-07-20T10:23:25;4.80;;;4.40;;
11568;SDS011;5840;46.894;15.542;2023-07-20T10:25:54;4.40;;;4.10;;
11568;SDS011;5840;46.894;15.542;2023-07-20T10:28:22;4.93;;;4.53;;
11568;SDS011;5840;46.894;15.542;2023-07-20T10:30:50;4.87;;;4.47;;
11568;SDS011;5840;46.894;15.542;2023-07-20T10:33:17;6.30;;;4.60;;
11568;SDS011;5840;46.894;15.542;2023-07-20T10:35:53;5.20;;;4.63;;
11568;SDS011;5840;46.894;15.542;2023-07-20T10:41:17;5.20;;;4.03;;
11568;SDS011;5840;46.894;15.542;2023-07-20T10:43:45;4.67;;;4.27;;
11568;SDS011;5840;46.894;15.542;2023-07-20T10:46:12;5.20;;;4.67;;
11568;SDS011;5840;46.894;15.542;2023-07-20T10:49:01;5.00;;;4.60;;
11568;SDS011;5840;46.894;15.542;2023-07-20T10:51:29;5.03;;;4.63;;
11568;SDS011;5840;46.894;15.542;2023-07-20T10:53:58;5.37;;;4.43;;
11568;SDS011;5840;46.894;15.542;2023-07-20T10:56:28;4.60;;;4.23;;
11568;SDS011;5840;46.894;15.542;2023-07-20T10:58:56;4.10;;;3.80;;
11568;SDS011;5840;46.894;15.542;2023-07-20T11:01:27;4.17;;;3.70;;
11568;SDS011;5840;46.894;15.542;2023-07-20T11:03:57;4.17;;;3.87;;
11568;SDS011;5840;46.894;15.542;2023-07-20T11:06:31;4.40;;;4.00;;
11568;SDS011;5840;46.894;15.542;2023-07-20T11:09:05;4.40;;;3.60;;
11568;SDS011;5840;46.894;15.542;2023-07-20T11:11:36;4.37;;;4.07;;
11568;SDS011;5840;46.894;15.542;2023-07-20T11:14:04;4.90;;;4.40;;
11568;SDS011;5840;46.894;15.542;2023-07-20T11:16:36;4.40;;;4.00;;
11568;SDS011;5840;46.894;15.542;2023-07-20T11:19:05;4.60;;;4.20;;
11568;SDS011;5840;46.894;15.542;2023-07-20T11:21:40;4.47;;;4.07;;
11568;SDS011;5840;46.894;15.542;2023-07-20T11:24:10;4.50;;;4.10;;
11568;SDS011;5840;46.894;15.542;2023-07-20T11:26:44;4.43;;;4.13;;
11568;SDS011;5840;46.894;15.542;2023-07-20T11:29:12;4.27;;;3.87;;
11568;SDS011;5840;46.894;15.542;2023-07-20T11:31:41;4.13;;;3.73;;
11568;SDS011;5840;46.894;15.542;2023-07-20T11:34:10;4.70;;;4.30;;
11568;SDS011;5840;46.894;15.542;2023-07-20T11:36:38;4.23;;;3.70;;
11568;SDS011;5840;46.894;15.542;2023-07-20T11:39:07;4.57;;;4.17;;
11568;SDS011;5840;46.894;15.542;2023-07-20T11:41:37;4.17;;;3.87;;
11568;SDS011;5840;46.894;15.542;2023-07-20T11:44:05;4.90;;;4.33;;
11568;SDS011;5840;46.894;15.542;2023-07-20T11:46:32;4.60;;;4.20;;
11568;SDS011;5840;46.894;15.542;2023-07-20T11:49:00;4.53;;;4.13;;
11568;SDS011;5840;46.894;15.542;2023-07-20T11:51:27;4.67;;;4.07;;
11568;SDS011;5840;46.894;15.542;2023-07-20T11:53:55;4.53;;;4.10;;
11568;SDS011;5840;46.894;15.542;2023-07-20T11:56:25;4.87;;;4.30;;
11568;SDS011;5840;46.894;15.542;2023-07-20T11:58:54;4.47;;;4.10;;
11568;SDS011;5840;46.894;15.542;2023-07-20T12:01:24;4.03;;;3.73;;
11568;SDS011;5840;46.894;15.542;2023-07-20T12:03:54;4.00;;;3.70;;
11568;SDS011;5840;46.894;15.542;2023-07-20T12:06:22;4.63;;;4.23;;
11568;SDS011;5840;46.894;15.542;2023-07-20T12:08:50;3.90;;;3.60;;
11568;SDS011;5840;46.894;15.542;2023-07-20T12:11:32;4.77;;;4.37;;
11568;SDS011;5840;46.894;15.542;2023-07-20T12:14:03;4.67;;;4.13;;
11568;SDS011;5840;46.894;15.542;2023-07-20T12:16:30;4.30;;;4.00;;
11568;SDS011;5840;46.894;15.542;2023-07-20T12:19:00;4.40;;;3.97;;
11568;SDS011;5840;46.894;15.542;2023-07-20T12:21:28;4.33;;;4.00;;
11568;SDS011;5840;46.894;15.542;2023-07-20T12:23:56;4.60;;;4.20;;
11568;SDS011;5840;46.894;15.542;2023-07-20T12:26:23;4.77;;;4.37;;
11568;SDS011;5840;46.894;15.542;2023-07-20T12:28:52;4.87;;;4.57;;
11568;SDS011;5840;46.894;15.542;2023-07-20T12:31:19;4.57;;;4.27;;
11568;SDS011;5840;46.894;15.542;2023-07-20T12:33:47;4.30;;;4.00;;
11568;SDS011;5840;46.894;15.542;2023-07-20T12:36:13;5.30;;;4.17;;
11568;SDS011;5840;46.894;15.542;2023-07-20T12:38:41;4.37;;;4.07;;
11568;SDS011;5840;46.894;15.542;2023-07-20T12:41:09;4.30;;;4.00;;
11568;SDS011;5840;46.894;15.542;2023-07-20T12:43:38;4.30;;;3.93;;
11568;SDS011;5840;46.894;15.542;2023-07-20T12:46:07;4.70;;;4.40;;
11568;SDS011;5840;46.894;15.542;2023-07-20T12:48:35;4.67;;;4.30;;
11568;SDS011;5840;46.894;15.542;2023-07-20T12:51:03;4.20;;;3.90;;
11568;SDS011;5840;46.894;15.542;2023-07-20T12:53:30;4.70;;;4.30;;
11568;SDS011;5840;46.894;15.542;2023-07-20T12:55:57;4.53;;;4.17;;
11568;SDS011;5840;46.894;15.542;2023-07-20T12:58:24;4.30;;;4.00;;
11568;SDS011;5840;46.894;15.542;2023-07-20T13:00:52;4.77;;;4.37;;
11568;SDS011;5840;46.894;15.542;2023-07-20T13:03:20;4.57;;;4.17;;
11568;SDS011;5840;46.894;15.542;2023-07-20T13:05:47;4.47;;;4.00;;
11568;SDS011;5840;46.894;15.542;2023-07-20T13:08:15;4.60;;;3.93;;
11568;SDS011;5840;46.894;15.542;2023-07-20T13:10:43;4.03;;;3.63;;
11568;SDS011;5840;46.894;15.542;2023-07-20T13:13:10;3.43;;;3.23;;
11568;SDS011;5840;46.894;15.542;2023-07-20T13:15:41;3.30;;;3.10;;
11568;SDS011;5840;46.894;15.542;2023-07-20T13:18:09;4.20;;;3.90;;
11568;SDS011;5840;46.894;15.542;2023-07-20T13:20:37;3.60;;;3.30;;
11568;SDS011;5840;46.894;15.542;2023-07-20T13:23:05;3.67;;;3.37;;
11568;SDS011;5840;46.894;15.542;2023-07-20T13:25:32;3.37;;;3.17;;
11568;SDS011;5840;46.894;15.542;2023-07-20T13:27:59;3.40;;;3.20;;
11568;SDS011;5840;46.894;15.542;2023-07-20T13:30:26;3.70;;;3.40;;
11568;SDS011;5840;46.894;15.542;2023-07-20T13:32:53;3.50;;;3.20;;
11568;SDS011;5840;46.894;15.542;2023-07-20T13:35:20;3.63;;;3.37;;
11568;SDS011;5840;46.894;15.542;2023-07-20T13:37:48;3.43;;;3.10;;
11568;SDS011;5840;46.894;15.542;2023-07-20T13:40:15;4.47;;;3.37;;
11568;SDS011;5840;46.894;15.542;2023-07-20T13:42:43;3.77;;;3.40;;
11568;SDS011;5840;46.894;15.542;2023-07-20T13:45:11;3.50;;;3.20;;
11568;SDS011;5840;46.894;15.542;2023-07-20T13:47:38;3.53;;;3.03;;
11568;SDS011;5840;46.894;15.542;2023-07-20T13:50:05;3.10;;;2.90;;
11568;SDS011;5840;46.894;15.542;2023-07-20T13:52:32;2.83;;;2.60;;
11568;SDS011;5840;46.894;15.542;2023-07-20T13:55:01;4.07;;;3.20;;
11568;SDS011;5840;46.894;15.542;2023-07-20T13:57:29;2.80;;;2.60;;
11568;SDS011;5840;46.894;15.542;2023-07-20T13:59:56;3.10;;;2.90;;
11568;SDS011;5840;46.894;15.542;2023-07-20T14:02:25;3.03;;;2.83;;
11568;SDS011;5840;46.894;15.542;2023-07-20T14:04:52;3.30;;;3.00;;
11568;SDS011;5840;46.894;15.542;2023-07-20T14:07:20;2.90;;;2.70;;
11568;SDS011;5840;46.894;15.542;2023-07-20T14:09:47;3.00;;;2.80;;
11568;SDS011;5840;46.894;15.542;2023-07-20T14:12:16;2.97;;;2.77;;
11568;SDS011;5840;46.894;15.542;2023-07-20T14:14:43;2.90;;;2.70;;
11568;SDS011;5840;46.894;15.542;2023-07-20T14:17:10;3.13;;;2.73;;
11568;SDS011;5840;46.894;15.542;2023-07-20T14:19:37;3.30;;;3.00;;
11568;SDS011;5840;46.894;15.542;2023-07-20T14:22:04;3.40;;;3.20;;
11568;SDS011;5840;46.894;15.542;2023-07-20T14:24:31;3.13;;;2.83;;
11568;SDS011;5840;46.894;15.542;2023-07-20T14:26:58;3.00;;;2.80;;
11568;SDS011;5840;46.894;15.542;2023-07-20T14:29:27;2.97;;;2.83;;
11568;SDS011;5840;46.894;15.542;2023-07-20T14:31:57;3.40;;;3.13;;
11568;SDS011;5840;46.894;15.542;2023-07-20T14:34:24;3.13;;;2.93;;
11568;SDS011;5840;46.894;15.542;2023-07-20T14:36:51;3.50;;;3.20;;
11568;SDS011;5840;46.894;15.542;2023-07-20T14:39:19;2.97;;;2.77;;
11568;SDS011;5840;46.894;15.542;2023-07-20T14:41:46;3.40;;;3.10;;
11568;SDS011;5840;46.894;15.542;2023-07-20T14:44:15;3.00;;;2.80;;
11568;SDS011;5840;46.894;15.542;2023-07-20T14:46:43;3.20;;;2.90;;
11568;SDS011;5840;46.894;15.542;2023-07-20T14:49:10;3.50;;;3.03;;
11568;SDS011;5840;46.894;15.542;2023-07-20T14:51:37;3.40;;;3.10;;
11568;SDS011;5840;46.894;15.542;2023-07-20T14:54:08;3.23;;;3.03;;
11568;SDS011;5840;46.894;15.542;2023-07-20T14:56:37;3.57;;;3.30;;
11568;SDS011;5840;46.894;15.542;2023-07-20T14:59:04;3.00;;;2.80;;
11568;SDS011;5840;46.894;15.542;2023-07-20T15:01:32;3.43;;;3.23;;